sensor_id;sensor_type;location;lat;lon;timestamp;P1;durP1;ratioP1;P2;durP2;ratioP2
67026;SDS011;53933;52.142;11.738;2022-09-01T00:02:01;3.40;;;1.20;;
67026;SDS011;53933;52.142;11.738;2022-09-01T00:04:33;1.17;;;1.08;;
67026;SDS011;53933;52.142;11.738;2022-09-01T00:07:02;1.67;;;0.93;;
67026;SDS011;53933;52.142;11.738;2022-09-01T00:09:29;1.55;;;1.13;;
67026;SDS011;53933;52.142;11.738;2022-09-01T00:11:58;2.85;;;1.08;;
67026;SDS011;53933;52.142;11.738;2022-09-01T00:14:26;1.23;;;0.77;;
67026;SDS011;53933;52.142;11.738;2022-09-01T00:16:54;3.28;;;0.82;;
67026;SDS011;53933;52.142;11.738;2022-09-01T00:19:22;1.73;;;0.90;;
67026;SDS011;53933;52.142;11.738;2022-09-01T00:21:49;5.35;;;1.08;;
67026;SDS011;53933;52.142;11.738;2022-09-01T00:24:16;1.40;;;1.05;;
67026;SDS011;53933;52.142;11.738;2022-09-01T00:26:44;0.88;;;0.70;;
67026;SDS011;53933;52.142;11.738;2022-09-01T00:29:12;0.77;;;0.70;;
67026;SDS011;53933;52.142;11.738;2022-09-01T00:31:40;1.70;;;1.00;;
67026;SDS011;53933;52.142;11.738;2022-09-01T00:34:07;2.03;;;1.13;;
67026;SDS011;53933;52.142;11.738;2022-09-01T00:36:33;2.65;;;0.90;;
67026;SDS011;53933;52.142;11.738;2022-09-01T00:39:00;1.52;;;1.05;;
67026;SDS011;53933;52.142;11.738;2022-09-01T00:41:28;2.80;;;1.13;;
67026;SDS011;53933;52.142;11.738;2022-09-01T00:43:58;1.52;;;0.95;;
67026;SDS011;53933;52.142;11.738;2022-09-01T00:46:31;1.02;;;0.77;;
67026;SDS011;53933;52.142;11.738;2022-09-01T00:49:00;2.45;;;0.88;;
67026;SDS011;53933;52.142;11.738;2022-09-01T00:51:29;0.73;;;0.73;;
67026;SDS011;53933;52.142;11.738;2022-09-01T00:53:58;2.35;;;1.02;;
67026;SDS011;53933;52.142;11.738;2022-09-01T00:56:26;0.82;;;0.80;;
67026;SDS011;53933;52.142;11.738;2022-09-01T00:58:54;1.92;;;0.88;;
67026;SDS011;53933;52.142;11.738;2022-09-01T01:01:20;1.20;;;0.82;;
67026;SDS011;53933;52.142;11.738;2022-09-01T01:03:49;1.70;;;0.93;;
67026;SDS011;53933;52.142;11.738;2022-09-01T01:06:16;0.60;;;0.60;;
67026;SDS011;53933;52.142;11.738;2022-09-01T01:08:47;1.60;;;1.02;;
67026;SDS011;53933;52.142;11.738;2022-09-01T01:11:25;1.58;;;1.05;;
67026;SDS011;53933;52.142;11.738;2022-09-01T01:13:55;0.95;;;0.70;;
67026;SDS011;53933;52.142;11.738;2022-09-01T01:16:25;0.85;;;0.80;;
67026;SDS011;53933;52.142;11.738;2022-09-01T01:18:54;1.00;;;0.90;;
67026;SDS011;53933;52.142;11.738;2022-09-01T01:21:24;1.80;;;0.70;;
67026;SDS011;53933;52.142;11.738;2022-09-01T01:24:21;2.47;;;1.20;;
67026;SDS011;53933;52.142;11.738;2022-09-01T01:26:49;0.60;;;0.60;;
67026;SDS011;53933;52.142;11.738;2022-09-01T01:29:16;1.58;;;0.88;;
67026;SDS011;53933;52.142;11.738;2022-09-01T01:31:43;0.63;;;0.63;;
67026;SDS011;53933;52.142;11.738;2022-09-01T01:34:11;1.40;;;0.68;;
67026;SDS011;53933;52.142;11.738;2022-09-01T01:36:39;0.95;;;0.88;;
67026;SDS011;53933;52.142;11.738;2022-09-01T01:39:08;2.17;;;0.95;;
67026;SDS011;53933;52.142;11.738;2022-09-01T01:41:39;1.35;;;0.93;;
67026;SDS011;53933;52.142;11.738;2022-09-01T01:44:10;1.23;;;0.75;;
67026;SDS011;53933;52.142;11.738;2022-09-01T01:46:39;1.60;;;0.90;;
67026;SDS011;53933;52.142;11.738;2022-09-01T01:49:08;1.65;;;0.98;;
67026;SDS011;53933;52.142;11.738;2022-09-01T01:51:37;1.10;;;0.80;;
67026;SDS011;53933;52.142;11.738;2022-09-01T01:54:04;2.95;;;0.90;;
67026;SDS011;53933;52.142;11.738;2022-09-01T01:56:32;1.33;;;1.20;;
67026;SDS011;53933;52.142;11.738;2022-09-01T01:59:05;3.25;;;0.98;;
67026;SDS011;53933;52.142;11.738;2022-09-01T02:01:31;6.20;;;0.93;;
67026;SDS011;53933;52.142;11.738;2022-09-01T02:03:58;1.45;;;0.80;;
67026;SDS011;53933;52.142;11.738;2022-09-01T02:06:28;3.38;;;1.10;;
67026;SDS011;53933;52.142;11.738;2022-09-01T02:08:59;1.08;;;0.93;;
67026;SDS011;53933;52.142;11.738;2022-09-01T02:11:27;1.48;;;0.70;;
67026;SDS011;53933;52.142;11.738;2022-09-01T02:13:57;2.08;;;0.93;;
67026;SDS011;53933;52.142;11.738;2022-09-01T02:16:27;1.45;;;0.88;;
67026;SDS011;53933;52.142;11.738;2022-09-01T02:18:56;1.67;;;0.80;;
67026;SDS011;53933;52.142;11.738;2022-09-01T02:21:24;1.80;;;1.00;;
67026;SDS011;53933;52.142;11.738;2022-09-01T02:23:53;3.00;;;0.77;;
67026;SDS011;53933;52.142;11.738;2022-09-01T02:26:24;1.55;;;0.73;;
67026;SDS011;53933;52.142;11.738;2022-09-01T02:28:55;0.68;;;0.68;;
67026;SDS011;53933;52.142;11.738;2022-09-01T02:31:27;2.53;;;1.08;;
67026;SDS011;53933;52.142;11.738;2022-09-01T02:33:54;1.40;;;0.98;;
67026;SDS011;53933;52.142;11.738;2022-09-01T02:36:20;3.15;;;1.20;;
67026;SDS011;53933;52.142;11.738;2022-09-01T02:38:49;5.05;;;1.27;;
67026;SDS011;53933;52.142;11.738;2022-09-01T02:41:16;4.93;;;1.67;;
67026;SDS011;53933;52.142;11.738;2022-09-01T02:43:47;7.03;;;1.60;;
67026;SDS011;53933;52.142;11.738;2022-09-01T02:46:14;8.93;;;2.10;;
67026;SDS011;53933;52.142;11.738;2022-09-01T02:48:42;6.80;;;1.60;;
67026;SDS011;53933;52.142;11.738;2022-09-01T02:51:16;8.05;;;2.03;;
67026;SDS011;53933;52.142;11.738;2022-09-01T02:53:45;6.05;;;2.42;;
67026;SDS011;53933;52.142;11.738;2022-09-01T02:56:16;7.63;;;1.83;;
67026;SDS011;53933;52.142;11.738;2022-09-01T02:58:45;7.03;;;1.90;;
67026;SDS011;53933;52.142;11.738;2022-09-01T03:01:12;4.03;;;1.23;;
67026;SDS011;53933;52.142;11.738;2022-09-01T03:03:47;5.82;;;1.70;;
67026;SDS011;53933;52.142;11.738;2022-09-01T03:06:15;6.35;;;1.58;;
67026;SDS011;53933;52.142;11.738;2022-09-01T03:08:48;8.00;;;1.58;;
67026;SDS011;53933;52.142;11.738;2022-09-01T03:11:15;6.88;;;1.45;;
67026;SDS011;53933;52.142;11.738;2022-09-01T03:13:43;7.65;;;2.08;;
67026;SDS011;53933;52.142;11.738;2022-09-01T03:16:10;6.40;;;1.55;;
67026;SDS011;53933;52.142;11.738;2022-09-01T03:18:37;4.93;;;1.45;;
67026;SDS011;53933;52.142;11.738;2022-09-01T03:21:06;5.28;;;1.35;;
67026;SDS011;53933;52.142;11.738;2022-09-01T03:23:33;5.25;;;1.50;;
67026;SDS011;53933;52.142;11.738;2022-09-01T03:26:02;5.60;;;1.48;;
67026;SDS011;53933;52.142;11.738;2022-09-01T03:28:29;3.78;;;1.13;;
67026;SDS011;53933;52.142;11.738;2022-09-01T03:30:56;5.18;;;1.20;;
67026;SDS011;53933;52.142;11.738;2022-09-01T03:33:24;2.92;;;1.20;;
67026;SDS011;53933;52.142;11.738;2022-09-01T03:35:52;3.72;;;1.23;;
67026;SDS011;53933;52.142;11.738;2022-09-01T03:38:21;2.65;;;1.20;;
67026;SDS011;53933;52.142;11.738;2022-09-01T03:40:48;6.10;;;1.48;;
67026;SDS011;53933;52.142;11.738;2022-09-01T03:43:16;2.53;;;1.30;;
67026;SDS011;53933;52.142;11.738;2022-09-01T03:45:47;1.92;;;1.08;;
67026;SDS011;53933;52.142;11.738;2022-09-01T03:48:14;2.42;;;1.17;;
67026;SDS011;53933;52.142;11.738;2022-09-01T03:50:41;4.25;;;1.17;;
67026;SDS011;53933;52.142;11.738;2022-09-01T03:53:10;4.43;;;1.20;;
67026;SDS011;53933;52.142;11.738;2022-09-01T03:55:39;1.38;;;1.13;;
67026;SDS011;53933;52.142;11.738;2022-09-01T03:58:07;4.35;;;1.65;;
67026;SDS011;53933;52.142;11.738;2022-09-01T04:00:36;5.05;;;1.40;;
67026;SDS011;53933;52.142;11.738;2022-09-01T04:03:05;2.58;;;1.20;;
67026;SDS011;53933;52.142;11.738;2022-09-01T04:05:34;1.80;;;1.00;;
67026;SDS011;53933;52.142;11.738;2022-09-01T04:08:09;3.22;;;1.23;;
67026;SDS011;53933;52.142;11.738;2022-09-01T04:10:41;3.63;;;0.98;;
67026;SDS011;53933;52.142;11.738;2022-09-01T04:13:13;1.15;;;0.85;;
67026;SDS011;53933;52.142;11.738;2022-09-01T04:15:41;1.65;;;1.17;;
67026;SDS011;53933;52.142;11.738;2022-09-01T04:18:07;4.68;;;1.08;;
67026;SDS011;53933;52.142;11.738;2022-09-01T04:20:34;3.38;;;1.08;;
67026;SDS011;53933;52.142;11.738;2022-09-01T04:23:12;2.58;;;1.40;;
67026;SDS011;53933;52.142;11.738;2022-09-01T04:25:42;1.13;;;0.82;;
67026;SDS011;53933;52.142;11.738;2022-09-01T04:28:08;2.05;;;0.93;;
67026;SDS011;53933;52.142;11.738;2022-09-01T04:30:46;4.22;;;1.00;;
67026;SDS011;53933;52.142;11.738;2022-09-01T04:33:14;2.40;;;1.00;;
67026;SDS011;53933;52.142;11.738;2022-09-01T04:35:42;2.75;;;1.23;;
67026;SDS011;53933;52.142;11.738;2022-09-01T04:38:09;2.20;;;1.10;;
67026;SDS011;53933;52.142;11.738;2022-09-01T04:40:39;3.13;;;1.27;;
67026;SDS011;53933;52.142;11.738;2022-09-01T04:43:08;1.15;;;0.85;;
67026;SDS011;53933;52.142;11.738;2022-09-01T04:45:35;1.63;;;0.88;;
67026;SDS011;53933;52.142;11.738;2022-09-01T04:48:02;4.38;;;1.30;;
67026;SDS011;53933;52.142;11.738;2022-09-01T04:50:30;2.13;;;1.00;;
67026;SDS011;53933;52.142;11.738;2022-09-01T04:52:59;2.95;;;0.98;;
67026;SDS011;53933;52.142;11.738;2022-09-01T04:55:27;1.05;;;0.80;;
67026;SDS011;53933;52.142;11.738;2022-09-01T04:57:56;4.07;;;1.20;;
67026;SDS011;53933;52.142;11.738;2022-09-01T05:00:25;1.17;;;0.85;;
67026;SDS011;53933;52.142;11.738;2022-09-01T05:02:56;2.03;;;0.88;;
67026;SDS011;53933;52.142;11.738;2022-09-01T05:05:27;1.50;;;0.82;;
67026;SDS011;53933;52.142;11.738;2022-09-01T05:08:03;1.77;;;1.23;;
67026;SDS011;53933;52.142;11.738;2022-09-01T05:10:30;1.83;;;0.90;;
67026;SDS011;53933;52.142;11.738;2022-09-01T05:12:59;1.77;;;1.00;;
67026;SDS011;53933;52.142;11.738;2022-09-01T05:15:33;2.15;;;1.10;;
67026;SDS011;53933;52.142;11.738;2022-09-01T05:18:01;3.08;;;1.25;;
67026;SDS011;53933;52.142;11.738;2022-09-01T05:20:35;2.42;;;1.05;;
67026;SDS011;53933;52.142;11.738;2022-09-01T05:23:02;3.55;;;1.25;;
67026;SDS011;53933;52.142;11.738;2022-09-01T05:25:29;0.65;;;0.65;;
67026;SDS011;53933;52.142;11.738;2022-09-01T05:27:56;1.30;;;0.75;;
67026;SDS011;53933;52.142;11.738;2022-09-01T05:30:24;1.10;;;1.00;;
67026;SDS011;53933;52.142;11.738;2022-09-01T05:32:52;1.83;;;1.00;;
67026;SDS011;53933;52.142;11.738;2022-09-01T05:35:19;1.30;;;1.00;;
67026;SDS011;53933;52.142;11.738;2022-09-01T05:37:48;1.35;;;0.90;;
67026;SDS011;53933;52.142;11.738;2022-09-01T05:40:15;3.85;;;1.08;;
67026;SDS011;53933;52.142;11.738;2022-09-01T05:42:42;1.42;;;0.98;;
67026;SDS011;53933;52.142;11.738;2022-09-01T05:45:09;2.00;;;0.90;;
67026;SDS011;53933;52.142;11.738;2022-09-01T05:47:38;0.95;;;0.90;;
67026;SDS011;53933;52.142;11.738;2022-09-01T05:50:06;2.30;;;1.05;;
67026;SDS011;53933;52.142;11.738;2022-09-01T05:52:35;1.85;;;0.80;;
67026;SDS011;53933;52.142;11.738;2022-09-01T05:55:04;2.92;;;1.00;;
67026;SDS011;53933;52.142;11.738;2022-09-01T05:57:33;0.52;;;0.50;;
67026;SDS011;53933;52.142;11.738;2022-09-01T06:00:00;1.00;;;0.90;;
67026;SDS011;53933;52.142;11.738;2022-09-01T06:02:34;1.17;;;0.80;;
67026;SDS011;53933;52.142;11.738;2022-09-01T06:05:04;1.55;;;0.88;;
67026;SDS011;53933;52.142;11.738;2022-09-01T06:07:31;2.20;;;0.85;;
67026;SDS011;53933;52.142;11.738;2022-09-01T06:10:02;1.10;;;0.70;;
67026;SDS011;53933;52.142;11.738;2022-09-01T06:12:30;0.80;;;0.80;;
67026;SDS011;53933;52.142;11.738;2022-09-01T06:14:58;1.52;;;0.65;;
67026;SDS011;53933;52.142;11.738;2022-09-01T06:17:26;1.20;;;0.80;;
67026;SDS011;53933;52.142;11.738;2022-09-01T06:19:54;1.27;;;0.80;;
67026;SDS011;53933;52.142;11.738;2022-09-01T06:22:24;1.63;;;0.65;;
67026;SDS011;53933;52.142;11.738;2022-09-01T06:24:51;1.10;;;0.77;;
67026;SDS011;53933;52.142;11.738;2022-09-01T06:27:19;1.13;;;0.70;;
67026;SDS011;53933;52.142;11.738;2022-09-01T06:29:46;1.75;;;0.90;;
67026;SDS011;53933;52.142;11.738;2022-09-01T06:32:20;0.98;;;0.77;;
67026;SDS011;53933;52.142;11.738;2022-09-01T06:34:49;0.60;;;0.60;;
67026;SDS011;53933;52.142;11.738;2022-09-01T06:37:16;0.95;;;0.80;;
67026;SDS011;53933;52.142;11.738;2022-09-01T06:39:48;1.40;;;0.95;;
67026;SDS011;53933;52.142;11.738;2022-09-01T06:42:15;1.40;;;0.90;;
67026;SDS011;53933;52.142;11.738;2022-09-01T06:44:43;1.23;;;0.85;;
67026;SDS011;53933;52.142;11.738;2022-09-01T06:47:10;0.63;;;0.63;;
67026;SDS011;53933;52.142;11.738;2022-09-01T06:49:37;1.50;;;0.80;;
67026;SDS011;53933;52.142;11.738;2022-09-01T06:52:05;0.68;;;0.68;;
67026;SDS011;53933;52.142;11.738;2022-09-01T06:54:31;0.57;;;0.57;;
67026;SDS011;53933;52.142;11.738;2022-09-01T06:57:00;1.40;;;0.60;;
67026;SDS011;53933;52.142;11.738;2022-09-01T06:59:28;1.00;;;0.73;;
67026;SDS011;53933;52.142;11.738;2022-09-01T07:01:56;1.17;;;0.90;;
67026;SDS011;53933;52.142;11.738;2022-09-01T07:04:25;1.60;;;0.70;;
67026;SDS011;53933;52.142;11.738;2022-09-01T07:06:53;1.42;;;0.90;;
67026;SDS011;53933;52.142;11.738;2022-09-01T07:09:21;1.33;;;0.60;;
67026;SDS011;53933;52.142;11.738;2022-09-01T07:11:48;0.70;;;0.70;;
67026;SDS011;53933;52.142;11.738;2022-09-01T07:14:16;2.50;;;0.70;;
67026;SDS011;53933;52.142;11.738;2022-09-01T07:16:43;1.33;;;1.00;;
67026;SDS011;53933;52.142;11.738;2022-09-01T07:19:11;0.80;;;0.80;;
67026;SDS011;53933;52.142;11.738;2022-09-01T07:21:39;0.90;;;0.60;;
67026;SDS011;53933;52.142;11.738;2022-09-01T07:24:06;3.17;;;0.95;;
67026;SDS011;53933;52.142;11.738;2022-09-01T07:26:33;1.08;;;0.70;;
67026;SDS011;53933;52.142;11.738;2022-09-01T07:29:01;0.85;;;0.60;;
67026;SDS011;53933;52.142;11.738;2022-09-01T07:31:31;1.00;;;0.80;;
67026;SDS011;53933;52.142;11.738;2022-09-01T07:34:01;1.80;;;0.57;;
67026;SDS011;53933;52.142;11.738;2022-09-01T07:36:30;1.58;;;0.73;;
67026;SDS011;53933;52.142;11.738;2022-09-01T07:38:57;0.68;;;0.65;;
67026;SDS011;53933;52.142;11.738;2022-09-01T07:41:25;1.42;;;0.70;;
67026;SDS011;53933;52.142;11.738;2022-09-01T07:43:52;2.13;;;0.85;;
67026;SDS011;53933;52.142;11.738;2022-09-01T07:46:21;0.82;;;0.60;;
67026;SDS011;53933;52.142;11.738;2022-09-01T07:48:50;0.93;;;0.65;;
67026;SDS011;53933;52.142;11.738;2022-09-01T07:51:19;0.65;;;0.50;;
67026;SDS011;53933;52.142;11.738;2022-09-01T07:53:47;2.45;;;0.75;;
67026;SDS011;53933;52.142;11.738;2022-09-01T07:56:15;1.73;;;0.80;;
67026;SDS011;53933;52.142;11.738;2022-09-01T07:58:44;1.05;;;0.60;;
67026;SDS011;53933;52.142;11.738;2022-09-01T08:01:13;0.57;;;0.57;;
67026;SDS011;53933;52.142;11.738;2022-09-01T08:03:42;1.33;;;0.70;;
67026;SDS011;53933;52.142;11.738;2022-09-01T08:06:11;2.85;;;0.85;;
67026;SDS011;53933;52.142;11.738;2022-09-01T08:08:43;2.42;;;0.80;;
67026;SDS011;53933;52.142;11.738;2022-09-01T08:11:14;0.85;;;0.77;;
67026;SDS011;53933;52.142;11.738;2022-09-01T08:13:42;1.27;;;0.90;;
67026;SDS011;53933;52.142;11.738;2022-09-01T08:16:09;0.70;;;0.70;;
67026;SDS011;53933;52.142;11.738;2022-09-01T08:18:36;1.73;;;0.80;;
67026;SDS011;53933;52.142;11.738;2022-09-01T08:21:04;0.77;;;0.70;;
67026;SDS011;53933;52.142;11.738;2022-09-01T08:23:33;0.70;;;0.70;;
67026;SDS011;53933;52.142;11.738;2022-09-01T08:26:03;1.25;;;0.82;;
67026;SDS011;53933;52.142;11.738;2022-09-01T08:28:31;1.55;;;0.70;;
67026;SDS011;53933;52.142;11.738;2022-09-01T08:30:58;1.20;;;0.60;;
67026;SDS011;53933;52.142;11.738;2022-09-01T08:33:25;3.05;;;0.85;;
67026;SDS011;53933;52.142;11.738;2022-09-01T08:35:53;0.55;;;0.55;;
67026;SDS011;53933;52.142;11.738;2022-09-01T08:38:21;0.63;;;0.57;;
67026;SDS011;53933;52.142;11.738;2022-09-01T08:40:51;1.17;;;0.70;;
67026;SDS011;53933;52.142;11.738;2022-09-01T08:43:21;0.68;;;0.68;;
67026;SDS011;53933;52.142;11.738;2022-09-01T08:45:57;0.88;;;0.70;;
67026;SDS011;53933;52.142;11.738;2022-09-01T08:48:35;0.93;;;0.80;;
67026;SDS011;53933;52.142;11.738;2022-09-01T08:51:09;0.80;;;0.80;;
67026;SDS011;53933;52.142;11.738;2022-09-01T08:53:40;0.95;;;0.70;;
67026;SDS011;53933;52.142;11.738;2022-09-01T08:56:10;0.73;;;0.70;;
67026;SDS011;53933;52.142;11.738;2022-09-01T08:58:38;1.05;;;0.80;;
67026;SDS011;53933;52.142;11.738;2022-09-01T09:01:07;1.83;;;0.80;;
67026;SDS011;53933;52.142;11.738;2022-09-01T09:03:39;1.20;;;0.60;;
67026;SDS011;53933;52.142;11.738;2022-09-01T09:06:13;1.23;;;0.77;;
67026;SDS011;53933;52.142;11.738;2022-09-01T09:08:46;2.30;;;0.60;;
67026;SDS011;53933;52.142;11.738;2022-09-01T09:11:25;0.80;;;0.80;;
67026;SDS011;53933;52.142;11.738;2022-09-01T09:14:14;2.47;;;0.88;;
67026;SDS011;53933;52.142;11.738;2022-09-01T09:16:51;2.90;;;0.60;;
67026;SDS011;53933;52.142;11.738;2022-09-01T09:19:21;2.08;;;0.73;;
67026;SDS011;53933;52.142;11.738;2022-09-01T09:21:50;1.08;;;0.70;;
67026;SDS011;53933;52.142;11.738;2022-09-01T09:24:21;2.08;;;0.80;;
67026;SDS011;53933;52.142;11.738;2022-09-01T09:26:53;0.70;;;0.70;;
67026;SDS011;53933;52.142;11.738;2022-09-01T09:29:22;0.98;;;0.80;;
67026;SDS011;53933;52.142;11.738;2022-09-01T09:32:00;3.83;;;0.98;;
67026;SDS011;53933;52.142;11.738;2022-09-01T09:34:30;2.67;;;1.08;;
67026;SDS011;53933;52.142;11.738;2022-09-01T09:37:21;1.33;;;0.82;;
67026;SDS011;53933;52.142;11.738;2022-09-01T09:40:02;1.73;;;1.63;;
67026;SDS011;53933;52.142;11.738;2022-09-01T09:42:35;1.85;;;0.77;;
67026;SDS011;53933;52.142;11.738;2022-09-01T09:45:04;3.60;;;1.00;;
67026;SDS011;53933;52.142;11.738;2022-09-01T09:47:33;2.88;;;0.90;;
67026;SDS011;53933;52.142;11.738;2022-09-01T09:50:12;6.35;;;1.35;;
67026;SDS011;53933;52.142;11.738;2022-09-01T09:52:43;7.07;;;1.30;;
67026;SDS011;53933;52.142;11.738;2022-09-01T09:55:20;5.70;;;0.90;;
67026;SDS011;53933;52.142;11.738;2022-09-01T09:57:53;9.13;;;1.30;;
67026;SDS011;53933;52.142;11.738;2022-09-01T10:00:24;8.20;;;1.58;;
67026;SDS011;53933;52.142;11.738;2022-09-01T10:02:53;6.15;;;1.42;;
67026;SDS011;53933;52.142;11.738;2022-09-01T10:05:26;4.50;;;1.50;;
67026;SDS011;53933;52.142;11.738;2022-09-01T10:07:59;10.27;;;1.05;;
67026;SDS011;53933;52.142;11.738;2022-09-01T10:10:27;5.55;;;1.25;;
67026;SDS011;53933;52.142;11.738;2022-09-01T10:12:58;1.02;;;0.60;;
67026;SDS011;53933;52.142;11.738;2022-09-01T10:15:27;4.63;;;1.20;;
67026;SDS011;53933;52.142;11.738;2022-09-01T10:17:58;3.22;;;0.95;;
67026;SDS011;53933;52.142;11.738;2022-09-01T10:20:29;2.00;;;0.70;;
67026;SDS011;53933;52.142;11.738;2022-09-01T10:22:58;1.10;;;0.70;;
67026;SDS011;53933;52.142;11.738;2022-09-01T10:25:28;3.00;;;1.00;;
67026;SDS011;53933;52.142;11.738;2022-09-01T10:28:01;3.13;;;1.10;;
67026;SDS011;53933;52.142;11.738;2022-09-01T10:30:35;1.63;;;0.88;;
67026;SDS011;53933;52.142;11.738;2022-09-01T10:33:06;2.35;;;0.85;;
67026;SDS011;53933;52.142;11.738;2022-09-01T10:35:35;2.45;;;0.70;;
67026;SDS011;53933;52.142;11.738;2022-09-01T10:38:05;2.45;;;0.68;;
67026;SDS011;53933;52.142;11.738;2022-09-01T10:40:35;2.17;;;0.75;;
67026;SDS011;53933;52.142;11.738;2022-09-01T10:43:26;6.22;;;0.90;;
67026;SDS011;53933;52.142;11.738;2022-09-01T10:45:59;2.03;;;0.77;;
67026;SDS011;53933;52.142;11.738;2022-09-01T10:48:33;4.35;;;0.85;;
67026;SDS011;53933;52.142;11.738;2022-09-01T10:54:13;1.05;;;0.60;;
67026;SDS011;53933;52.142;11.738;2022-09-01T11:00:22;1.95;;;0.68;;
67026;SDS011;53933;52.142;11.738;2022-09-01T11:03:31;0.98;;;0.75;;
67026;SDS011;53933;52.142;11.738;2022-09-01T11:06:03;1.00;;;0.60;;
67026;SDS011;53933;52.142;11.738;2022-09-01T11:08:42;1.98;;;0.70;;
67026;SDS011;53933;52.142;11.738;2022-09-01T11:11:14;0.95;;;0.57;;
67026;SDS011;53933;52.142;11.738;2022-09-01T11:13:49;1.25;;;0.68;;
67026;SDS011;53933;52.142;11.738;2022-09-01T11:16:25;2.47;;;0.88;;
67026;SDS011;53933;52.142;11.738;2022-09-01T11:18:53;9.07;;;1.20;;
67026;SDS011;53933;52.142;11.738;2022-09-01T11:21:22;1.40;;;0.70;;
67026;SDS011;53933;52.142;11.738;2022-09-01T11:23:51;1.63;;;0.85;;
67026;SDS011;53933;52.142;11.738;2022-09-01T11:26:55;0.95;;;0.73;;
67026;SDS011;53933;52.142;11.738;2022-09-01T11:32:18;0.70;;;0.70;;
67026;SDS011;53933;52.142;11.738;2022-09-01T11:34:49;1.85;;;0.95;;
67026;SDS011;53933;52.142;11.738;2022-09-01T11:37:19;2.22;;;0.68;;
67026;SDS011;53933;52.142;11.738;2022-09-01T11:39:47;1.08;;;0.82;;
67026;SDS011;53933;52.142;11.738;2022-09-01T11:42:16;2.15;;;0.82;;
67026;SDS011;53933;52.142;11.738;2022-09-01T11:44:48;1.23;;;0.60;;
67026;SDS011;53933;52.142;11.738;2022-09-01T11:47:19;1.45;;;0.55;;
67026;SDS011;53933;52.142;11.738;2022-09-01T11:49:50;2.47;;;1.15;;
67026;SDS011;53933;52.142;11.738;2022-09-01T11:52:19;5.20;;;1.23;;
67026;SDS011;53933;52.142;11.738;2022-09-01T11:54:48;9.48;;;1.05;;
67026;SDS011;53933;52.142;11.738;2022-09-01T11:57:16;4.10;;;0.93;;
67026;SDS011;53933;52.142;11.738;2022-09-01T11:59:54;1.08;;;0.65;;
67026;SDS011;53933;52.142;11.738;2022-09-01T12:02:25;4.07;;;0.60;;
67026;SDS011;53933;52.142;11.738;2022-09-01T12:04:54;3.53;;;0.88;;
67026;SDS011;53933;52.142;11.738;2022-09-01T12:07:24;2.97;;;0.70;;
67026;SDS011;53933;52.142;11.738;2022-09-01T12:09:55;2.13;;;0.75;;
67026;SDS011;53933;52.142;11.738;2022-09-01T12:12:29;3.53;;;0.90;;
67026;SDS011;53933;52.142;11.738;2022-09-01T12:14:57;1.77;;;0.80;;
67026;SDS011;53933;52.142;11.738;2022-09-01T12:17:26;1.52;;;0.77;;
67026;SDS011;53933;52.142;11.738;2022-09-01T12:19:53;8.88;;;0.90;;
67026;SDS011;53933;52.142;11.738;2022-09-01T12:22:20;2.13;;;0.90;;
67026;SDS011;53933;52.142;11.738;2022-09-01T12:24:48;2.65;;;0.80;;
67026;SDS011;53933;52.142;11.738;2022-09-01T12:27:17;1.85;;;0.43;;
67026;SDS011;53933;52.142;11.738;2022-09-01T12:29:44;1.67;;;0.60;;
67026;SDS011;53933;52.142;11.738;2022-09-01T12:32:12;1.85;;;0.70;;
67026;SDS011;53933;52.142;11.738;2022-09-01T12:34:42;1.33;;;0.80;;
67026;SDS011;53933;52.142;11.738;2022-09-01T12:37:11;0.90;;;0.65;;
67026;SDS011;53933;52.142;11.738;2022-09-01T12:39:47;0.98;;;0.50;;
67026;SDS011;53933;52.142;11.738;2022-09-01T12:42:22;0.70;;;0.70;;
67026;SDS011;53933;52.142;11.738;2022-09-01T12:44:54;1.63;;;0.50;;
67026;SDS011;53933;52.142;11.738;2022-09-01T12:53:19;0.50;;;0.50;;
67026;SDS011;53933;52.142;11.738;2022-09-01T12:55:53;0.80;;;0.70;;
67026;SDS011;53933;52.142;11.738;2022-09-01T12:58:26;0.85;;;0.50;;
67026;SDS011;53933;52.142;11.738;2022-09-01T13:00:55;4.45;;;0.70;;
67026;SDS011;53933;52.142;11.738;2022-09-01T13:03:25;0.82;;;0.60;;
67026;SDS011;53933;52.142;11.738;2022-09-01T13:05:55;2.88;;;1.15;;
67026;SDS011;53933;52.142;11.738;2022-09-01T13:08:24;2.70;;;0.68;;
67026;SDS011;53933;52.142;11.738;2022-09-01T13:10:54;1.23;;;0.77;;
67026;SDS011;53933;52.142;11.738;2022-09-01T13:13:23;5.35;;;0.85;;
67026;SDS011;53933;52.142;11.738;2022-09-01T13:15:52;0.77;;;0.70;;
67026;SDS011;53933;52.142;11.738;2022-09-01T13:18:20;2.22;;;0.80;;
67026;SDS011;53933;52.142;11.738;2022-09-01T13:20:49;2.80;;;0.88;;
67026;SDS011;53933;52.142;11.738;2022-09-01T13:23:18;3.13;;;0.73;;
67026;SDS011;53933;52.142;11.738;2022-09-01T13:25:45;4.38;;;0.60;;
67026;SDS011;53933;52.142;11.738;2022-09-01T13:28:13;2.90;;;0.88;;
67026;SDS011;53933;52.142;11.738;2022-09-01T13:30:42;8.23;;;1.10;;
67026;SDS011;53933;52.142;11.738;2022-09-01T13:33:10;7.25;;;1.00;;
67026;SDS011;53933;52.142;11.738;2022-09-01T13:35:37;3.53;;;0.82;;
67026;SDS011;53933;52.142;11.738;2022-09-01T13:38:04;1.88;;;0.60;;
67026;SDS011;53933;52.142;11.738;2022-09-01T13:40:32;3.33;;;1.17;;
67026;SDS011;53933;52.142;11.738;2022-09-01T13:42:58;2.30;;;1.00;;
67026;SDS011;53933;52.142;11.738;2022-09-01T13:45:25;3.10;;;0.90;;
67026;SDS011;53933;52.142;11.738;2022-09-01T13:47:52;3.15;;;0.90;;
67026;SDS011;53933;52.142;11.738;2022-09-01T13:50:20;3.40;;;0.80;;
67026;SDS011;53933;52.142;11.738;2022-09-01T13:52:48;2.70;;;1.10;;
67026;SDS011;53933;52.142;11.738;2022-09-01T13:55:17;2.67;;;1.00;;
67026;SDS011;53933;52.142;11.738;2022-09-01T13:57:48;1.23;;;0.57;;
67026;SDS011;53933;52.142;11.738;2022-09-01T14:00:16;3.58;;;0.80;;
67026;SDS011;53933;52.142;11.738;2022-09-01T14:02:50;2.65;;;0.70;;
67026;SDS011;53933;52.142;11.738;2022-09-01T14:05:19;2.75;;;0.85;;
67026;SDS011;53933;52.142;11.738;2022-09-01T14:07:47;3.03;;;0.80;;
67026;SDS011;53933;52.142;11.738;2022-09-01T14:10:15;0.93;;;0.50;;
67026;SDS011;53933;52.142;11.738;2022-09-01T14:12:42;3.45;;;0.65;;
67026;SDS011;53933;52.142;11.738;2022-09-01T14:15:12;0.85;;;0.50;;
67026;SDS011;53933;52.142;11.738;2022-09-01T14:17:41;1.50;;;0.80;;
67026;SDS011;53933;52.142;11.738;2022-09-01T14:20:09;1.52;;;0.70;;
67026;SDS011;53933;52.142;11.738;2022-09-01T14:22:38;0.95;;;0.50;;
67026;SDS011;53933;52.142;11.738;2022-09-01T14:25:05;4.55;;;0.98;;
67026;SDS011;53933;52.142;11.738;2022-09-01T14:27:36;0.77;;;0.68;;
67026;SDS011;53933;52.142;11.738;2022-09-01T14:30:03;2.13;;;0.88;;
67026;SDS011;53933;52.142;11.738;2022-09-01T14:32:33;1.88;;;0.85;;
67026;SDS011;53933;52.142;11.738;2022-09-01T14:35:00;0.90;;;0.70;;
67026;SDS011;53933;52.142;11.738;2022-09-01T14:37:28;3.80;;;0.70;;
67026;SDS011;53933;52.142;11.738;2022-09-01T14:39:55;2.00;;;0.60;;
67026;SDS011;53933;52.142;11.738;2022-09-01T14:42:23;0.95;;;0.75;;
67026;SDS011;53933;52.142;11.738;2022-09-01T14:44:52;0.98;;;0.52;;
67026;SDS011;53933;52.142;11.738;2022-09-01T14:47:20;0.90;;;0.63;;
67026;SDS011;53933;52.142;11.738;2022-09-01T14:49:50;0.55;;;0.52;;
67026;SDS011;53933;52.142;11.738;2022-09-01T14:52:17;0.57;;;0.57;;
67026;SDS011;53933;52.142;11.738;2022-09-01T14:54:45;1.70;;;0.88;;
67026;SDS011;53933;52.142;11.738;2022-09-01T14:57:11;3.47;;;0.77;;
67026;SDS011;53933;52.142;11.738;2022-09-01T14:59:39;1.20;;;0.57;;
67026;SDS011;53933;52.142;11.738;2022-09-01T15:02:06;1.70;;;0.63;;
67026;SDS011;53933;52.142;11.738;2022-09-01T15:04:33;2.70;;;0.75;;